Roseburg, OR

5:13 AM PDT on September 20, 2014 (GMT -0700)
Hucrest | Change Station
CLOSE
Current Station
Personal Weather Station
Location: Roseburg, OR
Elevation: 425 ft
Nearby Weather Stations

Elev 425 ft 43.22 °N, 123.38 °W | Updated 3 minutes ago

Clear
Clear
54.1 °F
Feels Like 54.1 °F
N
0.0
Wind Variable Wind from NNW
Gusts 0.0 mph

Today
High -- | Low -- °F
--% Chance of Precip.
Yesterday
High -- | Low -- °F
Precip. -- in
6:58 AM 7:14 PM
Waning Crescent, 12% visible
Pressure 29.96 in
Visibility 10.0 miles
Clouds Clear
Dew Point 49 °F
Humidity 83%
Rainfall 0.00 in
Snow Depth 0 in , 0 in , 0 in
UV 0 out of 12
Pollen 2.10 out of 12
Air Quality Not available.
Flu Activity Not available.
METAR KRBG 201153Z AUTO 00000KT 10SM CLR 15/09 A2996 RMK AO2 SLP143 T01500094 10217 20144 56007

More Conditions Fewer Conditions

Pressure 29.96 in
Visibility 10.0 miles
Clouds Clear
Dew Point 49 °F
Humidity 83%
Rainfall 0.00 in
Snow Depth 0 in , 0 in , 0 in
UV 0 out of 12
Pollen 2.10 out of 12
Air Quality Not available.
Flu Activity Not available.
METAR KRBG 201153Z AUTO 00000KT 10SM CLR 15/09 A2996 RMK AO2 SLP143 T01500094 10217 20144 56007

More Conditions Fewer Conditions

10-Day Weather Forecast

Almanac

Astronomy

Sep. 20, 2014 Rise Set
Actual Time 6:58 AM PDT 7:14 PM PDT
Civil Twilight 6:30 AM PDT 7:42 PM PDT
Nautical Twilight 5:56 AM PDT 8:16 PM PDT
Astronomical Twilight 5:22 AM PDT 8:50 PM PDT
Moon 3:38 AM PDT 5:24 PM PDT
Length of Visible Light 13h 12m
Length of Day
12h 15m
Tomorrow will be 2m 56s shorter.
Waning Crescent, 12% of the Moon is Illuminated
Today
Waning Crescent
Sep 24
New
Oct 1
First Quarter
Oct 8
Full
Oct 15
Last Quarter

Today's Extremes

State Highs State Lows

Community

WunderPhotos

Upload Photos

1,754,840 photos uploaded!

Nearby

Snow Depth

Station Depth Elevation
Gold Center 0 in 5340 ft
Strawberry 0 in 5760 ft
Three Creeks Meadow 0 in 5650 ft
Bigelow Camp 1 in 5120 ft
Madison Butte 0 in 5250 ft

Earthquake Activity

City Distance Mag. Time & Date
No recent earthquake activity has been reported nearby.
Minimum magnitude displayed is 2.5.

Coastal Water Temperatures

Place Temperature
No Stations Reporting

Nearby Weather Stations